Time;durP1;ratioP1;P1;durP2;ratioP2;P2;SDS_P1;SDS_P2;PMS_P1;PMS_P2;Temp;Humidity;BMP_temperature;BMP_pressure;BME280_temperature;BME280_humidity;BME280_pressure;Samples;Min_cycle;Max_cycle;Signal;HPM_P1;HPM_P2
2022/05/26 00:01:38;;;;;;;1.10;0.30;;;;;;;;;;4932091;28;20061;-77
2022/05/26 00:04:04;;;;;;;0.50;0.20;;;;;;;;;;4932248;29;20486;-77
2022/05/26 00:06:29;;;;;;;0.90;0.30;;;;;;;;;;4932359;29;20050;-77
2022/05/26 00:08:55;;;;;;;1.00;0.20;;;;;;;;;;4982836;28;20126;-77
2022/05/26 00:11:28;;;;;;;1.63;0.30;;;;;;;;;;4900673;28;20047;-77
2022/05/26 00:13:54;;;;;;;0.98;0.30;;;;;;;;;;4915799;29;20498;-77
2022/05/26 00:16:20;;;;;;;1.27;0.13;;;;;;;;;;4932285;28;20043;-77
2022/05/26 00:18:45;;;;;;;1.45;0.52;;;;;;;;;;4931857;29;20109;-77
2022/05/26 00:21:11;;;;;;;1.15;0.20;;;;;;;;;;4935171;28;20070;-76
2022/05/26 00:23:36;;;;;;;1.95;0.30;;;;;;;;;;5001976;28;20079;-77
2022/05/26 00:26:02;;;;;;;0.80;0.20;;;;;;;;;;4942671;28;20039;-76
2022/05/26 00:28:27;;;;;;;0.90;0.30;;;;;;;;;;5001839;28;20066;-77
2022/05/26 00:30:53;;;;;;;0.88;0.28;;;;;;;;;;4985486;28;20118;-77
2022/05/26 00:33:19;;;;;;;1.75;0.30;;;;;;;;;;5001839;28;20043;-76
2022/05/26 00:35:44;;;;;;;1.05;0.20;;;;;;;;;;4985262;28;20521;-76
2022/05/26 00:38:11;;;;;;;0.40;0.20;;;;;;;;;;5001743;28;20040;-77
2022/05/26 00:40:37;;;;;;;0.40;0.20;;;;;;;;;;5001965;28;20492;-77
2022/05/26 00:43:03;;;;;;;0.60;0.17;;;;;;;;;;4934648;29;20074;-77
2022/05/26 00:45:37;;;;;;;0.73;0.20;;;;;;;;;;4918896;29;20093;-77
2022/05/26 00:48:05;;;;;;;1.27;0.30;;;;;;;;;;4933956;28;20118;-77
2022/05/26 00:50:31;;;;;;;0.82;0.20;;;;;;;;;;4918120;28;20043;-78
2022/05/26 00:53:08;;;;;;;0.88;0.32;;;;;;;;;;4950843;29;20486;-77
2022/05/26 00:55:38;;;;;;;1.02;0.20;;;;;;;;;;4934478;28;20035;-77
2022/05/26 00:58:06;;;;;;;1.52;0.30;;;;;;;;;;4918227;29;20042;-77
2022/05/26 01:00:34;;;;;;;0.98;0.20;;;;;;;;;;4934687;29;20046;-77
2022/05/26 01:03:20;;;;;;;0.57;0.20;;;;;;;;;;4997433;28;20045;-77
2022/05/26 01:06:26;;;;;;;0.93;0.20;;;;;;;;;;4982396;28;20026;-77
2022/05/26 01:08:58;;;;;;;0.88;0.30;;;;;;;;;;5014729;28;20504;-77
2022/05/26 01:11:25;;;;;;;0.65;0.28;;;;;;;;;;5014228;28;20025;-77
2022/05/26 01:13:56;;;;;;;1.48;0.40;;;;;;;;;;5031225;28;20048;-78
2022/05/26 01:16:52;;;;;;;0.88;0.20;;;;;;;;;;5014675;28;20043;-77
2022/05/26 01:19:41;;;;;;;1.92;0.28;;;;;;;;;;5013741;28;20050;-76
2022/05/26 01:22:39;;;;;;;1.63;0.30;;;;;;;;;;4979174;28;20054;-77
2022/05/26 01:25:26;;;;;;;0.73;0.20;;;;;;;;;;4987855;28;20044;-77
2022/05/26 01:28:15;;;;;;;2.25;0.30;;;;;;;;;;4950949;28;20051;-77
2022/05/26 01:30:50;;;;;;;0.75;0.17;;;;;;;;;;4950055;28;20114;-77
2022/05/26 01:33:34;;;;;;;0.60;0.22;;;;;;;;;;4949885;29;20045;-77
2022/05/26 01:36:15;;;;;;;1.70;0.30;;;;;;;;;;4951296;28;20047;-77
2022/05/26 01:39:00;;;;;;;1.42;0.20;;;;;;;;;;5017428;28;20516;-77
2022/05/26 01:41:52;;;;;;;0.30;0.10;;;;;;;;;;4949648;28;20046;-77
2022/05/26 01:44:31;;;;;;;;;;;;;;;;;;4950271;28;20122;-76
2022/05/26 01:46:58;;;;;;;0.68;0.20;;;;;;;;;;4933866;29;20012;-77
2022/05/26 01:49:39;;;;;;;1.58;0.40;;;;;;;;;;4933934;28;20058;-77
2022/05/26 01:52:14;;;;;;;0.70;0.20;;;;;;;;;;4933833;29;20043;-77
2022/05/26 01:54:53;;;;;;;1.45;0.40;;;;;;;;;;4949610;28;20039;-77
2022/05/26 01:57:43;;;;;;;0.45;0.20;;;;;;;;;;4933487;29;20494;-77
2022/05/26 02:00:14;;;;;;;0.98;0.15;;;;;;;;;;4933816;29;20456;-77
2022/05/26 02:02:51;;;;;;;1.67;0.30;;;;;;;;;;4928959;29;20050;-77
2022/05/26 02:05:20;;;;;;;1.55;0.20;;;;;;;;;;4995758;28;20110;-77
2022/05/26 02:07:54;;;;;;;0.80;0.20;;;;;;;;;;4946299;28;20101;-76
2022/05/26 02:10:36;;;;;;;3.03;0.47;;;;;;;;;;4996212;28;20062;-76
2022/05/26 02:13:04;;;;;;;0.70;0.30;;;;;;;;;;4945803;28;20051;-77
2022/05/26 02:15:33;;;;;;;1.92;0.20;;;;;;;;;;4930072;28;20480;-76
2022/05/26 02:18:15;;;;;;;1.38;0.30;;;;;;;;;;4945818;29;20048;-77
2022/05/26 02:20:45;;;;;;;0.85;0.40;;;;;;;;;;4970126;28;20078;-77
2022/05/26 02:23:16;;;;;;;1.42;0.28;;;;;;;;;;4917820;28;20039;-77
2022/05/26 02:25:41;;;;;;;1.00;0.30;;;;;;;;;;4918143;29;20528;-77
2022/05/26 02:28:06;;;;;;;1.98;0.30;;;;;;;;;;4983707;28;20085;-76
2022/05/26 02:30:36;;;;;;;0.75;0.22;;;;;;;;;;4983989;28;20405;-77
2022/05/26 02:33:04;;;;;;;1.60;0.25;;;;;;;;;;5000734;28;20122;-76
2022/05/26 02:35:31;;;;;;;1.40;0.30;;;;;;;;;;5000298;28;20043;-77
2022/05/26 02:38:18;;;;;;;1.00;0.38;;;;;;;;;;5015871;28;20043;-76
2022/05/26 02:40:44;;;;;;;2.28;0.63;;;;;;;;;;5016466;28;20043;-76
2022/05/26 02:43:22;;;;;;;1.52;0.20;;;;;;;;;;4933270;29;20395;-77
2022/05/26 02:45:53;;;;;;;1.05;0.30;;;;;;;;;;4933326;28;20043;-77
2022/05/26 02:48:40;;;;;;;1.55;0.30;;;;;;;;;;4932930;28;20138;-77
2022/05/26 02:51:32;;;;;;;1.48;0.20;;;;;;;;;;4949219;29;20513;-77
2022/05/26 02:54:02;;;;;;;1.30;0.30;;;;;;;;;;4948659;29;20114;-77
2022/05/26 02:56:37;;;;;;;1.67;0.32;;;;;;;;;;4949046;28;20380;-77
2022/05/26 02:59:32;;;;;;;1.63;0.45;;;;;;;;;;4932987;28;20101;-77
2022/05/26 03:02:02;;;;;;;1.67;0.20;;;;;;;;;;4969829;28;20047;-76
2022/05/26 03:04:32;;;;;;;1.92;0.50;;;;;;;;;;4917279;29;20040;-77
2022/05/26 03:07:05;;;;;;;1.38;0.43;;;;;;;;;;4999674;28;20070;-77
2022/05/26 03:09:33;;;;;;;0.50;0.15;;;;;;;;;;4917476;28;20043;-77
2022/05/26 03:11:58;;;;;;;1.30;0.30;;;;;;;;;;4917066;28;20590;-77
2022/05/26 03:14:25;;;;;;;0.80;0.30;;;;;;;;;;4950402;28;20047;-76
2022/05/26 03:16:50;;;;;;;2.22;0.43;;;;;;;;;;4952068;29;20042;-77
2022/05/26 03:19:16;;;;;;;1.42;0.50;;;;;;;;;;4935650;29;20043;-77
2022/05/26 03:21:41;;;;;;;3.00;0.30;;;;;;;;;;4935875;29;20047;-77
2022/05/26 03:24:07;;;;;;;1.17;0.32;;;;;;;;;;4936392;29;20043;-77
2022/05/26 03:26:32;;;;;;;1.45;0.30;;;;;;;;;;5013846;28;20039;-76
2022/05/26 03:28:58;;;;;;;2.25;0.68;;;;;;;;;;5002864;28;20043;-76
2022/05/26 03:31:24;;;;;;;1.55;0.30;;;;;;;;;;5002397;28;20036;-77
2022/05/26 03:42:03;;;;;;;1.75;0.22;;;;;;;;;;4958082;28;20088;-77
2022/05/26 03:44:29;;;;;;;2.55;0.40;;;;;;;;;;4955019;28;20509;-77
2022/05/26 03:46:54;;;;;;;2.08;0.65;;;;;;;;;;4954568;28;20575;-76
2022/05/26 03:49:21;;;;;;;2.00;0.40;;;;;;;;;;4954504;28;20047;-76
2022/05/26 03:51:46;;;;;;;2.97;0.40;;;;;;;;;;4938757;28;20042;-76
2022/05/26 03:54:12;;;;;;;1.55;0.47;;;;;;;;;;4954910;28;20046;-77
2022/05/26 03:56:37;;;;;;;1.33;0.38;;;;;;;;;;4954610;28;20034;-77
2022/05/26 03:59:02;;;;;;;1.67;0.40;;;;;;;;;;4954323;28;20035;-76
2022/05/26 04:01:28;;;;;;;1.55;0.43;;;;;;;;;;4951271;28;20028;-77
2022/05/26 04:03:55;;;;;;;2.75;0.57;;;;;;;;;;5002331;28;20055;-77
2022/05/26 04:06:21;;;;;;;1.33;0.57;;;;;;;;;;5001474;28;20042;-77
2022/05/26 04:08:47;;;;;;;0.80;0.30;;;;;;;;;;5018661;28;20067;-77
2022/05/26 04:11:12;;;;;;;2.90;0.80;;;;;;;;;;5002315;28;20070;-76
2022/05/26 04:13:38;;;;;;;1.70;0.40;;;;;;;;;;4985974;28;20047;-77
2022/05/26 04:16:04;;;;;;;1.75;0.30;;;;;;;;;;4985867;28;20502;-76
2022/05/26 04:18:29;;;;;;;1.50;0.32;;;;;;;;;;5018520;28;20505;-76
2022/05/26 04:21:08;;;;;;;2.45;0.40;;;;;;;;;;4985559;28;20035;-77
2022/05/26 04:23:33;;;;;;;0.55;0.30;;;;;;;;;;5002119;28;20043;-77
2022/05/26 04:26:00;;;;;;;2.03;1.00;;;;;;;;;;4941325;28;20038;-76
2022/05/26 04:28:25;;;;;;;2.47;0.50;;;;;;;;;;5001835;28;20051;-76
2022/05/26 04:30:51;;;;;;;1.05;0.50;;;;;;;;;;5018443;28;20101;-77
2022/05/26 04:33:16;;;;;;;1.95;0.70;;;;;;;;;;5001855;28;20090;-77
2022/05/26 04:35:41;;;;;;;1.35;0.30;;;;;;;;;;5022243;28;20049;-77
2022/05/26 04:38:07;;;;;;;2.45;0.60;;;;;;;;;;4954244;28;20386;-76
2022/05/26 04:40:32;;;;;;;3.95;0.90;;;;;;;;;;5005003;28;20085;-77
2022/05/26 04:42:58;;;;;;;3.25;0.73;;;;;;;;;;4954178;28;20074;-77
2022/05/26 04:45:23;;;;;;;2.13;0.60;;;;;;;;;;4953895;28;20047;-76
2022/05/26 04:47:49;;;;;;;1.35;0.60;;;;;;;;;;4938021;28;20070;-77
2022/05/26 04:50:14;;;;;;;3.92;0.80;;;;;;;;;;4953742;28;20386;-76
2022/05/26 04:52:40;;;;;;;1.92;0.70;;;;;;;;;;4953937;28;20421;-76
2022/05/26 04:55:06;;;;;;;1.15;0.50;;;;;;;;;;4953978;28;20042;-77
2022/05/26 04:57:31;;;;;;;2.35;0.50;;;;;;;;;;4953863;28;20054;-77
2022/05/26 04:59:57;;;;;;;1.83;0.52;;;;;;;;;;4917824;28;20070;-77
2022/05/26 05:02:22;;;;;;;1.00;0.43;;;;;;;;;;4999553;28;20055;-76
2022/05/26 05:04:48;;;;;;;1.63;0.40;;;;;;;;;;4997746;28;20058;-77
2022/05/26 05:07:17;;;;;;;1.83;0.60;;;;;;;;;;4965551;28;20067;-76
2022/05/26 05:09:43;;;;;;;1.25;0.68;;;;;;;;;;4985119;28;20035;-77
2022/05/26 05:12:12;;;;;;;6.47;1.25;;;;;;;;;;4997387;28;20115;-77
2022/05/26 05:14:42;;;;;;;7.05;1.42;;;;;;;;;;4995767;28;20038;-76
2022/05/26 05:17:08;;;;;;;6.80;1.30;;;;;;;;;;5012964;28;20130;-77
2022/05/26 05:19:34;;;;;;;9.85;2.03;;;;;;;;;;4980402;28;20115;-77
2022/05/26 05:22:09;;;;;;;7.03;1.30;;;;;;;;;;4933530;29;20035;-76
2022/05/26 05:24:43;;;;;;;6.25;1.42;;;;;;;;;;5007741;28;20624;-76
2022/05/26 05:27:19;;;;;;;9.80;1.38;;;;;;;;;;4998264;28;20040;-76
2022/05/26 05:29:44;;;;;;;8.25;1.38;;;;;;;;;;4997715;28;20049;-76
2022/05/26 05:32:40;;;;;;;4.78;1.42;;;;;;;;;;4914545;28;20044;-76
2022/05/26 05:35:15;;;;;;;5.65;1.05;;;;;;;;;;4988401;28;20049;-76
2022/05/26 05:37:41;;;;;;;7.72;1.25;;;;;;;;;;4916035;28;20047;-77
2022/05/26 05:40:07;;;;;;;9.18;1.58;;;;;;;;;;4916970;29;20032;-76
2022/05/26 05:42:32;;;;;;;6.30;1.38;;;;;;;;;;5011244;28;20037;-76
2022/05/26 05:44:58;;;;;;;6.60;1.17;;;;;;;;;;4930370;29;20441;-76
2022/05/26 05:47:23;;;;;;;6.35;1.30;;;;;;;;;;4980361;28;20101;-76
2022/05/26 05:49:49;;;;;;;6.57;1.10;;;;;;;;;;4997753;28;20035;-76
2022/05/26 05:52:17;;;;;;;3.28;0.88;;;;;;;;;;4981353;28;20118;-76
2022/05/26 05:54:43;;;;;;;4.20;1.00;;;;;;;;;;4997792;28;20563;-77
2022/05/26 05:57:08;;;;;;;5.57;1.63;;;;;;;;;;4998049;28;20101;-78
2022/05/26 05:59:34;;;;;;;7.70;1.75;;;;;;;;;;5000079;28;20039;-79
2022/05/26 06:01:59;;;;;;;8.68;1.70;;;;;;;;;;4992941;28;20493;-81
2022/05/26 06:04:25;;;;;;;7.15;1.73;;;;;;;;;;4899050;29;20047;-79
2022/05/26 06:06:51;;;;;;;13.48;3.17;;;;;;;;;;4918419;28;20129;-78
2022/05/26 06:09:17;;;;;;;8.77;2.67;;;;;;;;;;4898925;28;20123;-79
2022/05/26 06:11:43;;;;;;;10.15;2.85;;;;;;;;;;4915256;28;20047;-78
2022/05/26 06:14:08;;;;;;;5.20;2.05;;;;;;;;;;4904021;28;20122;-78
2022/05/26 06:16:34;;;;;;;7.35;2.20;;;;;;;;;;5000824;28;20129;-79
2022/05/26 06:19:00;;;;;;;8.05;2.08;;;;;;;;;;4997510;28;20093;-79
2022/05/26 06:21:26;;;;;;;19.88;3.92;;;;;;;;;;4984074;28;20039;-79
2022/05/26 06:23:51;;;;;;;17.73;3.35;;;;;;;;;;5000282;28;20539;-80
2022/05/26 06:26:17;;;;;;;12.93;2.63;;;;;;;;;;5000195;28;20038;-79
2022/05/26 06:31:26;;;;;;;5.60;1.80;;;;;;;;;;5006764;28;20043;-80
2022/05/26 06:39:19;;;;;;;7.47;2.03;;;;;;;;;;4954950;28;20524;-79
2022/05/26 06:44:42;;;;;;;5.82;2.13;;;;;;;;;;4956522;28;20133;-79
2022/05/26 06:47:26;;;;;;;7.85;2.03;;;;;;;;;;4952318;28;20129;-79
2022/05/26 06:49:52;;;;;;;14.02;2.53;;;;;;;;;;4954699;28;20070;-79
2022/05/26 06:52:18;;;;;;;9.35;2.63;;;;;;;;;;4954731;28;20059;-79
2022/05/26 06:54:44;;;;;;;8.45;2.30;;;;;;;;;;5011756;28;20409;-78
2022/05/26 06:57:11;;;;;;;5.85;1.58;;;;;;;;;;4986945;28;20039;-78
2022/05/26 06:59:38;;;;;;;5.72;1.77;;;;;;;;;;4919463;28;20047;-78
2022/05/26 07:02:06;;;;;;;6.93;1.60;;;;;;;;;;4926489;28;20035;-78
2022/05/26 07:04:32;;;;;;;10.60;3.05;;;;;;;;;;4994067;28;20043;-78
2022/05/26 07:06:57;;;;;;;4.93;1.77;;;;;;;;;;5008666;28;20047;-79
2022/05/26 07:09:23;;;;;;;5.88;1.63;;;;;;;;;;5000217;28;20054;-79
2022/05/26 07:11:49;;;;;;;6.65;1.73;;;;;;;;;;4919059;28;20036;-80
2022/05/26 07:14:14;;;;;;;8.93;1.77;;;;;;;;;;4986772;28;20569;-79
2022/05/26 07:16:41;;;;;;;8.35;2.22;;;;;;;;;;5001570;28;20071;-79
2022/05/26 07:19:07;;;;;;;11.13;2.63;;;;;;;;;;4976536;28;20035;-80
2022/05/26 07:21:33;;;;;;;7.38;2.28;;;;;;;;;;4920095;28;20521;-80
2022/05/26 07:23:59;;;;;;;6.72;1.55;;;;;;;;;;5000523;28;20111;-81
2022/05/26 07:26:32;;;;;;;5.88;1.52;;;;;;;;;;5003276;28;20070;-79
2022/05/26 07:28:58;;;;;;;5.85;1.27;;;;;;;;;;4999472;28;20036;-79
2022/05/26 07:31:24;;;;;;;6.13;1.98;;;;;;;;;;4979430;28;20421;-80
2022/05/26 07:33:49;;;;;;;8.07;1.88;;;;;;;;;;5002781;28;20126;-81
2022/05/26 07:41:44;;;;;;;6.13;2.38;;;;;;;;;;4938295;29;20085;-80
2022/05/26 07:44:09;;;;;;;5.25;1.98;;;;;;;;;;4951004;29;20043;-80
2022/05/26 07:46:35;;;;;;;9.60;3.47;;;;;;;;;;4919565;28;20448;-81
2022/05/26 07:49:00;;;;;;;4.68;1.33;;;;;;;;;;4915926;28;20652;-81
2022/05/26 07:51:26;;;;;;;5.45;1.92;;;;;;;;;;4983140;28;20387;-80
2022/05/26 07:53:51;;;;;;;4.85;1.70;;;;;;;;;;4999342;28;20047;-80
2022/05/26 07:56:17;;;;;;;6.88;1.85;;;;;;;;;;4999185;28;20422;-80
2022/05/26 07:58:43;;;;;;;5.97;1.55;;;;;;;;;;4998212;28;20399;-79
2022/05/26 08:01:10;;;;;;;6.50;2.35;;;;;;;;;;4999535;28;20047;-79
2022/05/26 08:03:37;;;;;;;4.88;2.13;;;;;;;;;;4951314;29;20042;-79
2022/05/26 08:06:03;;;;;;;5.75;2.28;;;;;;;;;;5002369;28;20154;-80
2022/05/26 08:08:31;;;;;;;6.55;1.50;;;;;;;;;;4935003;28;20038;-79
2022/05/26 08:10:56;;;;;;;6.93;2.38;;;;;;;;;;4951600;28;20044;-79
2022/05/26 08:13:22;;;;;;;5.72;1.58;;;;;;;;;;4934339;29;20031;-80
2022/05/26 08:15:49;;;;;;;4.93;1.77;;;;;;;;;;4935747;28;20050;-80
2022/05/26 08:18:15;;;;;;;7.10;1.67;;;;;;;;;;4935136;29;20035;-80
2022/05/26 08:20:41;;;;;;;7.38;2.00;;;;;;;;;;5013474;28;20054;-80
2022/05/26 08:23:07;;;;;;;7.50;3.05;;;;;;;;;;4935372;28;20043;-79
2022/05/26 08:25:32;;;;;;;11.07;2.65;;;;;;;;;;4925474;29;20070;-79
2022/05/26 08:27:57;;;;;;;6.88;2.28;;;;;;;;;;5001412;28;20413;-79
2022/05/26 08:30:23;;;;;;;6.40;2.90;;;;;;;;;;5010368;28;20039;-79
2022/05/26 08:32:54;;;;;;;7.10;3.22;;;;;;;;;;4925874;29;20456;-79
2022/05/26 08:35:20;;;;;;;10.25;3.95;;;;;;;;;;4935885;28;20110;-80
2022/05/26 08:37:45;;;;;;;7.43;3.50;;;;;;;;;;4934923;28;20553;-79
2022/05/26 08:40:35;;;;;;;8.10;2.90;;;;;;;;;;4934611;29;20058;-80
2022/05/26 08:43:02;;;;;;;8.13;2.83;;;;;;;;;;4934552;29;20031;-80
2022/05/26 08:45:28;;;;;;;8.02;2.60;;;;;;;;;;5001649;28;20031;-79
2022/05/26 08:47:53;;;;;;;9.20;3.58;;;;;;;;;;4934102;29;20043;-79
2022/05/26 08:50:24;;;;;;;8.43;2.90;;;;;;;;;;4934943;29;20043;-79
2022/05/26 08:52:56;;;;;;;6.43;2.45;;;;;;;;;;4934692;28;20043;-79
2022/05/26 08:55:25;;;;;;;8.60;2.50;;;;;;;;;;4933554;28;20043;-78
2022/05/26 08:58:25;;;;;;;10.93;3.17;;;;;;;;;;4934263;29;20115;-78
2022/05/26 09:00:51;;;;;;;9.38;2.83;;;;;;;;;;5010370;28;20561;-78
2022/05/26 09:03:27;;;;;;;15.02;3.90;;;;;;;;;;4933667;29;20085;-77
2022/05/26 09:06:03;;;;;;;25.98;5.45;;;;;;;;;;4918628;28;20035;-78
2022/05/26 09:14:06;;;;;;;9.88;4.18;;;;;;;;;;4936306;29;20040;-77
2022/05/26 09:16:33;;;;;;;9.13;4.40;;;;;;;;;;4933639;28;20121;-77
2022/05/26 09:19:15;;;;;;;9.93;4.90;;;;;;;;;;4933760;28;20046;-76
2022/05/26 09:21:41;;;;;;;8.25;5.30;;;;;;;;;;4950372;28;20165;-77
2022/05/26 09:24:29;;;;;;;9.15;5.05;;;;;;;;;;4918152;29;20505;-77
2022/05/26 09:26:59;;;;;;;9.98;5.38;;;;;;;;;;4949980;28;20110;-77
2022/05/26 09:29:26;;;;;;;9.82;4.97;;;;;;;;;;4980974;28;20395;-77
2022/05/26 09:31:52;;;;;;;9.63;4.78;;;;;;;;;;4998183;28;20048;-77
2022/05/26 09:34:18;;;;;;;8.40;4.80;;;;;;;;;;4981175;28;20524;-77
2022/05/26 09:36:49;;;;;;;10.35;4.78;;;;;;;;;;4933940;29;20051;-77
2022/05/26 09:39:34;;;;;;;10.93;4.28;;;;;;;;;;4933786;29;20039;-77
2022/05/26 09:41:59;;;;;;;9.13;4.28;;;;;;;;;;4950324;29;20074;-77
2022/05/26 09:44:51;;;;;;;11.40;5.35;;;;;;;;;;4933986;29;20085;-77
2022/05/26 09:47:41;;;;;;;9.10;4.33;;;;;;;;;;4931219;28;20059;-77
2022/05/26 09:50:10;;;;;;;7.85;4.35;;;;;;;;;;4933881;29;20039;-77
2022/05/26 09:52:42;;;;;;;9.05;3.95;;;;;;;;;;4933704;29;20035;-77
2022/05/26 09:55:14;;;;;;;7.47;3.78;;;;;;;;;;4934154;29;20049;-77
2022/05/26 09:57:40;;;;;;;6.80;3.80;;;;;;;;;;4933610;29;20051;-77
2022/05/26 10:00:30;;;;;;;8.38;3.92;;;;;;;;;;4933918;29;20043;-77
2022/05/26 10:02:57;;;;;;;11.65;6.22;;;;;;;;;;4928948;28;20063;-77
2022/05/26 10:05:29;;;;;;;18.23;9.13;;;;;;;;;;4946430;28;20414;-77
2022/05/26 10:07:59;;;;;;;17.65;8.70;;;;;;;;;;4946249;28;20046;-77
2022/05/26 10:10:27;;;;;;;10.98;5.22;;;;;;;;;;4997133;28;20044;-77
2022/05/26 10:13:24;;;;;;;9.38;3.72;;;;;;;;;;4946296;28;20040;-77
2022/05/26 10:16:10;;;;;;;9.27;2.13;;;;;;;;;;4938834;28;20055;-77
2022/05/26 10:18:48;;;;;;;7.45;2.42;;;;;;;;;;4943510;28;20040;-77
2022/05/26 10:21:25;;;;;;;4.78;2.03;;;;;;;;;;5032401;28;20471;-77
2022/05/26 10:23:57;;;;;;;4.63;1.90;;;;;;;;;;4950125;28;20162;-77
2022/05/26 10:26:42;;;;;;;6.35;1.83;;;;;;;;;;4972010;28;20054;-77
2022/05/26 10:29:35;;;;;;;8.27;1.80;;;;;;;;;;5020482;28;20070;-77
2022/05/26 10:32:01;;;;;;;6.40;2.28;;;;;;;;;;4954281;28;20494;-77
2022/05/26 10:34:57;;;;;;;6.07;1.85;;;;;;;;;;4954135;28;20053;-77
2022/05/26 10:37:41;;;;;;;11.18;2.17;;;;;;;;;;4953377;28;20050;-76
2022/05/26 10:40:24;;;;;;;5.43;1.67;;;;;;;;;;4935086;29;20784;-77
2022/05/26 10:42:57;;;;;;;13.02;3.03;;;;;;;;;;4952885;29;20075;-77
2022/05/26 10:45:33;;;;;;;15.13;2.92;;;;;;;;;;4936825;28;20040;-77
2022/05/26 10:48:17;;;;;;;10.48;2.63;;;;;;;;;;4952103;29;20463;-77
2022/05/26 10:51:05;;;;;;;14.25;2.67;;;;;;;;;;4952725;28;20532;-77
2022/05/26 10:53:46;;;;;;;12.23;2.60;;;;;;;;;;4952231;28;20061;-77
2022/05/26 10:56:31;;;;;;;11.38;3.80;;;;;;;;;;4952473;29;20063;-77
2022/05/26 10:59:27;;;;;;;9.18;2.65;;;;;;;;;;4952020;28;20051;-77
2022/05/26 11:02:11;;;;;;;6.85;3.13;;;;;;;;;;4960489;28;20101;-77
2022/05/26 11:04:43;;;;;;;6.38;3.05;;;;;;;;;;4933582;28;20043;-77
2022/05/26 11:07:17;;;;;;;6.43;2.85;;;;;;;;;;4931970;29;20585;-77
2022/05/26 11:09:55;;;;;;;5.38;2.50;;;;;;;;;;4933474;29;20044;-77
2022/05/26 11:12:35;;;;;;;7.50;3.10;;;;;;;;;;4933066;28;20043;-77
2022/05/26 11:18:06;;;;;;;43.17;23.85;;;;;;;;;;4986361;28;20387;-77
2022/05/26 11:20:38;;;;;;;20.15;10.48;;;;;;;;;;5009887;28;20048;-77
2022/05/26 11:23:03;;;;;;;12.60;5.85;;;;;;;;;;5016863;28;20111;-77
2022/05/26 11:25:31;;;;;;;12.07;3.78;;;;;;;;;;5000354;28;20059;-77
2022/05/26 11:27:59;;;;;;;5.65;2.80;;;;;;;;;;5003300;28;20039;-77
2022/05/26 11:36:08;;;;;;;5.93;1.85;;;;;;;;;;4991111;28;20039;-77
2022/05/26 11:38:35;;;;;;;5.43;1.55;;;;;;;;;;5019392;28;20040;-77
2022/05/26 11:41:00;;;;;;;5.30;1.80;;;;;;;;;;4986735;28;20505;-77
2022/05/26 11:43:33;;;;;;;6.40;2.80;;;;;;;;;;4952602;29;20077;-77
2022/05/26 11:45:59;;;;;;;6.07;2.20;;;;;;;;;;4935980;28;20040;-77
2022/05/26 11:48:30;;;;;;;6.20;2.50;;;;;;;;;;5002877;28;20042;-77
2022/05/26 11:51:00;;;;;;;5.53;2.67;;;;;;;;;;4950795;28;20130;-77
2022/05/26 11:53:32;;;;;;;5.97;1.80;;;;;;;;;;4982735;28;20079;-77
2022/05/26 11:56:04;;;;;;;4.85;2.00;;;;;;;;;;4933719;29;20078;-77
2022/05/26 11:58:46;;;;;;;7.47;2.92;;;;;;;;;;4998403;28;20453;-77
2022/05/26 12:01:22;;;;;;;7.50;2.25;;;;;;;;;;4996797;28;20067;-77
2022/05/26 12:03:53;;;;;;;4.20;1.92;;;;;;;;;;4949384;29;20079;-77
2022/05/26 12:06:53;;;;;;;5.20;2.25;;;;;;;;;;4942448;29;20505;-77
2022/05/26 12:09:19;;;;;;;3.65;1.52;;;;;;;;;;4924624;28;20087;-77
2022/05/26 12:11:53;;;;;;;4.72;1.60;;;;;;;;;;5000631;28;20050;-77
2022/05/26 12:14:27;;;;;;;6.03;2.30;;;;;;;;;;5001920;28;20509;-76
2022/05/26 12:16:54;;;;;;;4.28;1.27;;;;;;;;;;5002745;28;20051;-78
2022/05/26 12:19:41;;;;;;;4.30;1.60;;;;;;;;;;5002628;28;20122;-77
2022/05/26 12:22:23;;;;;;;3.38;0.85;;;;;;;;;;4922348;28;20039;-77
2022/05/26 12:24:51;;;;;;;3.35;1.20;;;;;;;;;;4932246;28;20047;-77
2022/05/26 12:27:48;;;;;;;5.10;2.15;;;;;;;;;;4998178;28;20040;-77
2022/05/26 12:30:39;;;;;;;6.45;1.77;;;;;;;;;;4950460;29;20054;-77
2022/05/26 12:33:20;;;;;;;3.33;1.30;;;;;;;;;;5005986;28;20047;-77
2022/05/26 12:36:07;;;;;;;7.72;1.77;;;;;;;;;;4945302;28;20093;-77
2022/05/26 12:39:17;;;;;;;4.60;1.17;;;;;;;;;;4948240;28;20043;-77
2022/05/26 12:42:07;;;;;;;8.20;0.98;;;;;;;;;;4942617;28;20039;-77
2022/05/26 12:44:57;;;;;;;7.45;1.20;;;;;;;;;;4947721;28;20043;-77
2022/05/26 12:47:56;;;;;;;5.50;1.02;;;;;;;;;;4924278;28;20401;-77
2022/05/26 12:50:24;;;;;;;6.20;1.15;;;;;;;;;;4998778;28;20204;-77
2022/05/26 12:52:49;;;;;;;4.05;1.30;;;;;;;;;;4998449;28;20054;-77
2022/05/26 12:55:25;;;;;;;3.83;1.30;;;;;;;;;;4998731;28;20040;-77
2022/05/26 12:58:00;;;;;;;3.22;1.00;;;;;;;;;;5014434;28;20105;-77
2022/05/26 13:00:25;;;;;;;4.60;0.93;;;;;;;;;;5009841;28;20046;-77
2022/05/26 13:02:53;;;;;;;3.15;1.30;;;;;;;;;;4945183;28;20055;-79
2022/05/26 13:05:19;;;;;;;7.22;1.13;;;;;;;;;;4999018;28;20039;-77
2022/05/26 13:07:53;;;;;;;2.90;0.85;;;;;;;;;;4916947;28;20517;-77
2022/05/26 13:10:24;;;;;;;3.67;0.98;;;;;;;;;;5013376;28;20494;-77
2022/05/26 13:12:49;;;;;;;3.95;1.00;;;;;;;;;;4917619;29;20056;-77
2022/05/26 13:15:20;;;;;;;4.35;0.95;;;;;;;;;;4998381;28;20110;-77
2022/05/26 13:17:48;;;;;;;3.53;1.45;;;;;;;;;;4980899;28;20089;-77
2022/05/26 13:20:24;;;;;;;4.50;0.70;;;;;;;;;;5000524;28;20047;-77
2022/05/26 13:22:49;;;;;;;4.88;1.08;;;;;;;;;;4998553;28;20035;-77
2022/05/26 13:25:21;;;;;;;4.05;0.95;;;;;;;;;;4997950;28;20042;-77
2022/05/26 13:27:47;;;;;;;4.95;1.10;;;;;;;;;;4994776;28;20417;-77
2022/05/26 13:33:08;;;;;;;4.00;1.45;;;;;;;;;;4990120;28;20421;-77
2022/05/26 13:35:56;;;;;;;3.15;1.10;;;;;;;;;;4998178;28;20578;-78
2022/05/26 13:38:32;;;;;;;5.93;1.58;;;;;;;;;;5000871;28;20124;-77
2022/05/26 13:40:58;;;;;;;5.50;1.00;;;;;;;;;;4998354;28;20035;-77
2022/05/26 13:43:24;;;;;;;5.47;1.48;;;;;;;;;;4995992;28;20465;-77
2022/05/26 13:45:49;;;;;;;4.45;1.15;;;;;;;;;;4996382;28;20122;-77
2022/05/26 13:48:26;;;;;;;3.42;1.02;;;;;;;;;;4914087;29;20295;-78
2022/05/26 13:50:53;;;;;;;5.18;1.50;;;;;;;;;;4997121;28;20047;-77
2022/05/26 13:53:18;;;;;;;8.05;1.58;;;;;;;;;;4915074;28;20410;-77
2022/05/26 13:55:44;;;;;;;3.50;0.90;;;;;;;;;;4981383;28;20040;-77
2022/05/26 13:58:10;;;;;;;3.53;0.70;;;;;;;;;;4996393;28;20040;-78
2022/05/26 14:00:36;;;;;;;7.38;0.88;;;;;;;;;;4964988;28;20138;-77
2022/05/26 14:03:21;;;;;;;3.58;0.80;;;;;;;;;;5000690;28;20040;-77
2022/05/26 14:05:56;;;;;;;4.30;0.95;;;;;;;;;;5000701;28;20497;-77
2022/05/26 14:08:22;;;;;;;4.78;0.90;;;;;;;;;;5016996;28;20067;-77
2022/05/26 14:10:52;;;;;;;3.72;0.80;;;;;;;;;;4984051;28;20079;-77
2022/05/26 14:13:23;;;;;;;4.38;1.30;;;;;;;;;;4999802;28;20058;-78
2022/05/26 14:15:54;;;;;;;3.33;0.77;;;;;;;;;;5000395;28;20035;-77
2022/05/26 14:18:22;;;;;;;2.75;0.70;;;;;;;;;;4950135;29;20031;-77
2022/05/26 14:21:14;;;;;;;3.85;0.98;;;;;;;;;;5029184;28;20035;-77
2022/05/26 14:24:06;;;;;;;4.90;0.95;;;;;;;;;;4921002;28;20521;-77
2022/05/26 14:26:39;;;;;;;4.88;0.95;;;;;;;;;;5010439;28;20040;-77
2022/05/26 14:29:16;;;;;;;3.63;0.70;;;;;;;;;;4983731;28;20060;-77
2022/05/26 14:32:09;;;;;;;2.13;0.85;;;;;;;;;;5016803;28;20039;-77
2022/05/26 14:34:39;;;;;;;17.58;2.83;;;;;;;;;;4985296;28;20070;-77
2022/05/26 14:37:05;;;;;;;10.73;1.50;;;;;;;;;;4939884;28;20050;-77
2022/05/26 14:39:31;;;;;;;11.93;1.85;;;;;;;;;;4933367;29;20122;-77
2022/05/26 14:41:57;;;;;;;38.08;3.67;;;;;;;;;;4917559;29;20114;-77
2022/05/26 14:44:22;;;;;;;17.50;3.05;;;;;;;;;;4933226;29;20241;-77
2022/05/26 14:46:48;;;;;;;19.05;3.17;;;;;;;;;;4933004;29;20031;-77
2022/05/26 14:49:13;;;;;;;7.95;1.13;;;;;;;;;;4932676;28;20551;-77
2022/05/26 14:51:39;;;;;;;5.00;0.98;;;;;;;;;;4933347;28;20038;-77
2022/05/26 14:56:48;;;;;;;6.32;1.65;;;;;;;;;;4935345;29;20449;-78
2022/05/26 14:59:14;;;;;;;5.10;1.40;;;;;;;;;;4932689;29;20123;-77
2022/05/26 15:01:39;;;;;;;4.75;1.40;;;;;;;;;;4929541;29;20441;-77
2022/05/26 15:04:05;;;;;;;13.35;5.20;;;;;;;;;;4930023;28;20050;-77
2022/05/26 15:06:38;;;;;;;11.82;5.90;;;;;;;;;;4929868;29;20462;-77
2022/05/26 15:09:11;;;;;;;13.80;5.45;;;;;;;;;;4929057;28;20336;-77
2022/05/26 15:11:36;;;;;;;7.22;2.58;;;;;;;;;;4915474;29;20085;-77
2022/05/26 15:14:02;;;;;;;9.98;1.55;;;;;;;;;;4932862;29;20044;-77
2022/05/26 15:16:27;;;;;;;9.15;1.20;;;;;;;;;;4932997;28;20516;-77
2022/05/26 15:18:53;;;;;;;7.70;1.98;;;;;;;;;;4999889;28;20557;-77
2022/05/26 15:21:19;;;;;;;3.25;1.08;;;;;;;;;;5019993;28;20551;-78
2022/05/26 15:23:44;;;;;;;6.13;1.30;;;;;;;;;;4981342;28;20164;-77
2022/05/26 15:26:11;;;;;;;5.00;1.02;;;;;;;;;;5002498;28;20081;-78
2022/05/26 15:28:45;;;;;;;5.70;1.45;;;;;;;;;;4985533;28;20123;-78
2022/05/26 15:31:11;;;;;;;5.43;1.25;;;;;;;;;;5019270;28;20044;-78
2022/05/26 15:33:36;;;;;;;4.38;1.02;;;;;;;;;;4986277;28;20120;-79
2022/05/26 15:36:06;;;;;;;6.57;1.13;;;;;;;;;;4987292;28;20115;-78
2022/05/26 15:38:44;;;;;;;5.72;1.02;;;;;;;;;;4920189;29;20151;-79
2022/05/26 15:41:10;;;;;;;8.07;1.30;;;;;;;;;;4919614;29;20553;-78
2022/05/26 15:43:36;;;;;;;3.92;0.85;;;;;;;;;;4919707;28;20043;-79
2022/05/26 15:46:03;;;;;;;7.05;1.42;;;;;;;;;;4926701;28;20036;-79
2022/05/26 15:48:28;;;;;;;4.40;1.33;;;;;;;;;;4983070;28;20437;-78
2022/05/26 15:50:54;;;;;;;9.50;1.88;;;;;;;;;;4934446;29;20054;-78